createdAt,value
2023-05-05T00:00:44.785Z,41.90
2023-05-05T00:03:12.973Z,41.90
2023-05-05T00:05:45.015Z,41.80
2023-05-05T00:08:13.289Z,41.40
2023-05-05T00:10:42.541Z,41.10
2023-05-05T00:13:10.795Z,41.20
2023-05-05T00:15:39.058Z,41.30
2023-05-05T00:18:07.482Z,41.00
2023-05-05T00:20:35.747Z,41.10
2023-05-05T00:23:05.817Z,41.20
2023-05-05T00:25:33.968Z,41.10
2023-05-05T00:28:02.226Z,41.50
2023-05-05T00:30:30.600Z,41.40
2023-05-05T00:32:58.812Z,41.60
2023-05-05T00:35:27.813Z,40.80
2023-05-05T00:37:56.426Z,41.40
2023-05-05T00:40:26.766Z,41.50
2023-05-05T00:42:55.006Z,41.30
2023-05-05T00:45:23.237Z,41.20
2023-05-05T00:47:55.277Z,40.90
2023-05-05T00:50:24.885Z,41.10
2023-05-05T00:52:55.313Z,41.60
2023-05-05T00:55:26.190Z,41.40
2023-05-05T00:57:54.745Z,41.20
2023-05-05T01:00:23.151Z,40.90
2023-05-05T01:02:52.278Z,41.40
2023-05-05T01:05:22.319Z,41.50
2023-05-05T01:08:03.831Z,41.20
2023-05-05T01:10:41.831Z,41.70
2023-05-05T01:13:23.566Z,41.30
2023-05-05T01:15:59.188Z,41.30
2023-05-05T01:18:33.437Z,41.60
2023-05-05T01:21:11.852Z,42.70
2023-05-05T01:24:12.290Z,43.10
2023-05-05T01:26:54.347Z,42.80
2023-05-05T01:29:38.287Z,42.60
2023-05-05T01:32:10.827Z,42.40
2023-05-05T01:34:47.616Z,42.40
2023-05-05T01:37:23.314Z,42.20
2023-05-05T01:39:54.553Z,41.80
2023-05-05T01:42:27.087Z,41.80
2023-05-05T01:44:57.661Z,42.30
2023-05-05T01:47:29.005Z,42.20
2023-05-05T01:49:57.253Z,42.20
2023-05-05T01:52:27.637Z,42.00
2023-05-05T01:54:57.564Z,42.50
2023-05-05T01:57:27.522Z,42.80
2023-05-05T01:59:57.081Z,43.10
2023-05-05T02:02:28.665Z,42.30
2023-05-05T02:04:57.442Z,42.00
2023-05-05T02:07:26.287Z,42.20
2023-05-05T02:09:55.414Z,42.00
2023-05-05T02:12:26.893Z,42.00
2023-05-05T02:14:58.629Z,41.90
2023-05-05T02:17:28.941Z,42.00
2023-05-05T02:19:59.394Z,42.20
2023-05-05T02:22:27.687Z,42.00
2023-05-05T02:24:56.174Z,42.10
2023-05-05T02:27:26.504Z,42.30
2023-05-05T02:30:00.701Z,42.20
2023-05-05T02:32:35.247Z,42.90
2023-05-05T02:35:11.679Z,42.30
2023-05-05T02:37:47.691Z,42.20
2023-05-05T02:40:20.924Z,42.10
2023-05-05T02:42:51.028Z,42.00
2023-05-05T02:45:23.796Z,42.50
2023-05-05T02:47:53.528Z,42.90
2023-05-05T02:50:23.238Z,43.10
2023-05-05T02:53:00.265Z,42.80
2023-05-05T02:55:34.509Z,42.40
2023-05-05T02:58:12.506Z,42.70
2023-05-05T03:00:51.668Z,42.80
2023-05-05T03:03:29.618Z,42.60
2023-05-05T03:06:14.261Z,42.40
2023-05-05T03:08:57.202Z,41.60
2023-05-05T03:11:32.975Z,41.70
2023-05-05T03:14:09.761Z,41.70
2023-05-05T03:16:40.561Z,41.90
2023-05-05T03:19:13.121Z,41.90
2023-05-05T03:21:43.642Z,42.20
2023-05-05T03:24:16.383Z,42.00
2023-05-05T03:26:49.739Z,41.90
2023-05-05T03:29:21.663Z,42.00
2023-05-05T03:31:50.546Z,42.00
2023-05-05T03:34:20.224Z,41.80
2023-05-05T03:36:50.048Z,41.30
2023-05-05T03:39:18.955Z,41.40
2023-05-05T03:41:48.059Z,41.50
2023-05-05T03:44:17.895Z,41.60
2023-05-05T03:46:46.085Z,41.80
2023-05-05T03:49:16.537Z,42.10
2023-05-05T03:51:48.305Z,42.00
2023-05-05T03:54:17.061Z,41.60
2023-05-05T03:56:45.425Z,41.60
2023-05-05T03:59:13.663Z,41.90
2023-05-05T04:01:41.898Z,41.90
2023-05-05T04:04:10.773Z,41.90
2023-05-05T04:06:39.112Z,41.80
2023-05-05T04:09:08.666Z,41.80
2023-05-05T04:11:38.422Z,41.90
2023-05-05T04:14:06.905Z,42.10
2023-05-05T04:16:35.592Z,42.30
2023-05-05T04:19:03.965Z,42.00
2023-05-05T04:21:33.889Z,42.20
2023-05-05T04:24:02.602Z,42.70
2023-05-05T04:26:33.268Z,42.20
2023-05-05T04:29:01.596Z,42.40
2023-05-05T04:31:30.656Z,42.30
2023-05-05T04:33:59.093Z,41.90
2023-05-05T04:36:27.452Z,41.50
2023-05-05T04:38:56.240Z,41.80
2023-05-05T04:41:24.768Z,41.40
2023-05-05T04:43:55.034Z,41.60
2023-05-05T04:46:23.280Z,41.00
2023-05-05T04:48:51.535Z,40.20
2023-05-05T04:51:19.983Z,39.70
2023-05-05T04:53:48.186Z,39.40
2023-05-05T04:56:16.326Z,39.00
2023-05-05T04:58:45.067Z,38.70
2023-05-05T05:01:14.587Z,38.80
2023-05-05T05:03:42.802Z,40.00
2023-05-05T05:06:11.045Z,38.70
2023-05-05T05:08:39.192Z,38.90
2023-05-05T05:11:07.457Z,39.00
2023-05-05T05:13:35.657Z,38.20
2023-05-05T05:16:04.954Z,38.00
2023-05-05T05:18:34.795Z,38.80
2023-05-05T05:21:03.417Z,37.50
2023-05-05T05:23:31.720Z,38.20
2023-05-05T05:26:00.652Z,37.30
2023-05-05T05:28:29.147Z,37.10
2023-05-05T05:31:00.141Z,37.80
2023-05-05T05:33:28.331Z,37.40
2023-05-05T05:35:59.508Z,36.60
2023-05-05T05:38:28.556Z,37.40
2023-05-05T05:41:00.043Z,37.00
2023-05-05T05:43:28.377Z,36.90
2023-05-05T05:45:56.726Z,37.50
2023-05-05T05:48:28.407Z,36.50
2023-05-05T05:50:58.755Z,37.50
2023-05-05T05:53:27.702Z,36.40
2023-05-05T05:55:56.610Z,38.30
2023-05-05T05:58:25.539Z,36.80
2023-05-05T06:00:53.956Z,37.70
2023-05-05T06:03:22.311Z,37.50
2023-05-05T06:05:50.692Z,36.80
2023-05-05T06:08:25.034Z,36.90
2023-05-05T06:10:54.861Z,36.30
2023-05-05T06:13:23.109Z,36.70
2023-05-05T06:15:53.722Z,35.70
2023-05-05T06:18:21.988Z,36.10
2023-05-05T06:20:52.237Z,36.40
2023-05-05T06:23:23.885Z,36.50
2023-05-05T06:25:57.593Z,37.30
2023-05-05T06:28:26.039Z,37.10
2023-05-05T06:30:54.216Z,37.70
2023-05-05T06:33:22.403Z,38.40
2023-05-05T06:35:52.928Z,37.70
2023-05-05T06:38:21.176Z,37.50
2023-05-05T06:40:50.833Z,35.60
2023-05-05T06:43:19.235Z,35.90
2023-05-05T06:45:54.249Z,36.30
2023-05-05T06:48:22.703Z,35.90
2023-05-05T06:50:50.887Z,37.70
2023-05-05T06:53:19.270Z,36.30
2023-05-05T06:55:49.892Z,34.20
2023-05-05T06:58:18.095Z,34.60
2023-05-05T07:00:46.318Z,35.10
2023-05-05T07:03:14.677Z,35.70
2023-05-05T07:05:43.274Z,36.00
2023-05-05T07:08:11.514Z,34.60
2023-05-05T07:10:39.702Z,34.80
2023-05-05T07:13:09.533Z,33.70
2023-05-05T07:15:38.008Z,35.10
2023-05-05T07:18:06.451Z,34.60
2023-05-05T07:20:34.644Z,34.90
2023-05-05T07:23:02.789Z,34.90
2023-05-05T07:25:30.966Z,34.80
2023-05-05T07:27:59.363Z,33.60
2023-05-05T07:30:28.980Z,34.60
2023-05-05T07:32:57.632Z,33.50
2023-05-05T07:35:26.351Z,33.10
2023-05-05T07:37:54.522Z,33.20
2023-05-05T07:40:23.956Z,32.70
2023-05-05T07:42:52.200Z,33.10
2023-05-05T07:45:20.806Z,33.20
2023-05-05T07:47:50.676Z,32.80
2023-05-05T07:50:19.018Z,32.50
2023-05-05T07:52:51.813Z,32.10
2023-05-05T07:55:27.752Z,32.70
2023-05-05T07:57:55.936Z,33.10
2023-05-05T08:00:27.167Z,33.60
2023-05-05T08:02:56.804Z,32.90
2023-05-05T08:05:25.010Z,31.70
2023-05-05T08:07:53.491Z,31.90
2023-05-05T08:10:22.215Z,32.40
2023-05-05T08:12:50.549Z,33.00
2023-05-05T08:15:18.850Z,32.20
2023-05-05T08:17:48.605Z,31.60
2023-05-05T08:20:19.158Z,32.40
2023-05-05T08:22:47.814Z,32.50
2023-05-05T08:25:15.960Z,32.20
2023-05-05T08:27:44.301Z,32.00
2023-05-05T08:30:13.407Z,31.80
2023-05-05T08:32:41.652Z,30.90
2023-05-05T08:35:10.762Z,31.10
2023-05-05T08:37:40.608Z,30.50
2023-05-05T08:40:12.149Z,30.80
2023-05-05T08:42:40.349Z,31.40
2023-05-05T08:45:10.818Z,31.90
2023-05-05T08:47:40.262Z,32.20
2023-05-05T08:50:12.023Z,32.40
2023-05-05T08:52:45.044Z,31.20
2023-05-05T08:55:18.999Z,29.70
2023-05-05T08:57:52.792Z,30.10
2023-05-05T09:00:23.970Z,31.20
2023-05-05T09:02:53.186Z,32.10
2023-05-05T09:05:21.500Z,32.10
2023-05-05T09:07:56.660Z,30.80
2023-05-05T09:10:29.518Z,29.40
2023-05-05T09:12:58.499Z,31.00
2023-05-05T09:15:28.382Z,30.30
2023-05-05T09:17:58.858Z,30.70
2023-05-05T09:20:34.227Z,30.20
2023-05-05T09:23:10.655Z,31.50
2023-05-05T09:25:39.343Z,31.40
2023-05-05T09:28:11.901Z,30.80
2023-05-05T09:30:41.341Z,30.90
2023-05-05T09:33:09.770Z,31.10
2023-05-05T09:35:51.561Z,30.20
2023-05-05T09:38:21.745Z,30.50
2023-05-05T09:40:51.822Z,31.00
2023-05-05T09:43:21.435Z,30.80
2023-05-05T09:45:50.083Z,30.90
2023-05-05T09:48:30.098Z,30.60
2023-05-05T09:50:59.107Z,30.70
2023-05-05T09:53:40.458Z,30.00
2023-05-05T09:56:10.286Z,29.80
2023-05-05T09:58:38.526Z,30.10
2023-05-05T10:01:06.781Z,29.60
2023-05-05T10:03:36.048Z,29.70
2023-05-05T10:06:04.652Z,30.00
2023-05-05T10:08:34.365Z,30.20
2023-05-05T10:11:06.284Z,30.20
2023-05-05T10:13:37.907Z,31.80
2023-05-05T10:16:09.440Z,30.60
2023-05-05T10:18:40.894Z,30.20
2023-05-05T10:21:10.158Z,31.50
2023-05-05T10:23:48.381Z,30.70
2023-05-05T10:26:20.699Z,29.50
2023-05-05T10:28:52.536Z,29.60
2023-05-05T10:31:26.884Z,29.50
2023-05-05T10:34:01.269Z,29.50
2023-05-05T10:36:31.576Z,29.70
2023-05-05T10:39:02.342Z,29.60
2023-05-05T10:41:31.852Z,29.80
2023-05-05T10:44:02.886Z,29.10
2023-05-05T10:46:33.203Z,29.30
2023-05-05T10:49:07.823Z,29.90
2023-05-05T10:51:47.344Z,28.90
2023-05-05T10:54:24.493Z,29.90
2023-05-05T10:56:53.435Z,30.30
2023-05-05T10:59:43.020Z,28.80
2023-05-05T11:02:26.061Z,30.00
2023-05-05T11:05:17.681Z,29.30
2023-05-05T11:07:47.126Z,29.40
2023-05-05T11:10:18.724Z,29.00
2023-05-05T11:13:19.485Z,28.40
2023-05-05T11:15:48.366Z,28.70
2023-05-05T11:18:43.227Z,29.40
2023-05-05T11:21:18.777Z,28.90
2023-05-05T11:23:48.899Z,29.50
2023-05-05T11:26:19.815Z,29.70
2023-05-05T11:29:02.500Z,29.60
2023-05-05T11:31:31.740Z,28.00
2023-05-05T11:34:26.758Z,29.10
2023-05-05T11:36:59.057Z,29.20
2023-05-05T11:39:42.177Z,29.60
2023-05-05T11:42:26.666Z,30.00
2023-05-05T11:44:55.841Z,29.90
2023-05-05T11:47:33.363Z,29.40
2023-05-05T11:50:19.212Z,30.00
2023-05-05T11:52:48.248Z,29.30
2023-05-05T11:55:22.946Z,29.50
2023-05-05T11:57:52.692Z,28.50
2023-05-05T12:00:21.500Z,28.30
2023-05-05T12:02:58.068Z,29.20
2023-05-05T12:05:26.524Z,30.30
2023-05-05T12:07:59.372Z,29.50
2023-05-05T12:10:28.056Z,29.40
2023-05-05T12:12:58.093Z,28.40
2023-05-05T12:15:33.408Z,28.90
2023-05-05T12:18:03.233Z,29.00
2023-05-05T12:20:33.637Z,28.50
2023-05-05T12:23:12.381Z,29.40
2023-05-05T12:25:41.232Z,29.50
2023-05-05T12:28:11.106Z,27.50
2023-05-05T12:30:39.346Z,27.50
2023-05-05T12:33:09.041Z,28.10
2023-05-05T12:35:37.828Z,28.60
2023-05-05T12:38:06.102Z,28.60
2023-05-05T12:40:45.162Z,28.20
2023-05-05T12:43:27.130Z,27.20
2023-05-05T12:46:09.162Z,27.90
2023-05-05T12:48:39.100Z,27.90
2023-05-05T12:51:21.112Z,27.30
2023-05-05T12:53:50.716Z,27.20
2023-05-05T12:56:39.237Z,27.50
2023-05-05T12:59:09.866Z,27.10
2023-05-05T13:01:50.367Z,27.60
2023-05-05T13:04:19.578Z,27.10
2023-05-05T13:06:49.314Z,26.50
2023-05-05T13:09:28.053Z,27.00
2023-05-05T13:11:56.507Z,26.60
2023-05-05T13:14:30.549Z,26.90
2023-05-05T13:16:58.760Z,27.50
2023-05-05T13:19:27.654Z,26.80
2023-05-05T13:21:57.384Z,26.80
2023-05-05T13:24:42.313Z,27.70
2023-05-05T13:27:14.489Z,28.10
2023-05-05T13:29:44.055Z,26.70
2023-05-05T13:32:12.318Z,27.10
2023-05-05T13:34:41.434Z,26.90
2023-05-05T13:37:09.687Z,27.30
2023-05-05T13:39:37.923Z,28.30
2023-05-05T13:42:06.249Z,27.70
2023-05-05T13:44:35.287Z,27.40
2023-05-05T13:47:05.451Z,27.40
2023-05-05T13:49:33.706Z,26.50
2023-05-05T13:52:02.145Z,27.20
2023-05-05T13:54:30.607Z,27.30
2023-05-05T13:56:58.942Z,27.40
2023-05-05T13:59:27.499Z,28.30
2023-05-05T14:01:55.925Z,27.70
2023-05-05T14:04:25.639Z,27.40
2023-05-05T14:06:54.611Z,28.10
2023-05-05T14:09:24.796Z,28.40
2023-05-05T14:11:53.479Z,28.50
2023-05-05T14:14:21.752Z,28.30
2023-05-05T14:16:50.454Z,27.40
2023-05-05T14:19:18.807Z,27.40
2023-05-05T14:21:48.415Z,27.40
2023-05-05T14:24:16.563Z,27.90
2023-05-05T14:26:44.713Z,28.30
2023-05-05T14:29:12.857Z,27.50
2023-05-05T14:31:41.046Z,27.50
2023-05-05T14:34:09.239Z,27.90
2023-05-05T14:36:37.404Z,28.40
2023-05-05T14:39:07.063Z,27.50
2023-05-05T14:41:35.269Z,28.30
2023-05-05T14:44:03.733Z,27.60
2023-05-05T14:46:32.151Z,28.00
2023-05-05T14:49:00.668Z,28.30
2023-05-05T14:51:28.932Z,28.00
2023-05-05T14:53:57.093Z,28.20
2023-05-05T14:56:28.145Z,27.70
2023-05-05T14:58:56.442Z,27.80
2023-05-05T15:01:25.711Z,27.50
2023-05-05T15:03:55.104Z,26.90
2023-05-05T15:06:23.406Z,27.50
2023-05-05T15:08:51.538Z,27.70
2023-05-05T15:11:19.699Z,28.00
2023-05-05T15:13:49.276Z,28.00
2023-05-05T15:16:17.499Z,28.60
2023-05-05T15:18:46.282Z,28.60
2023-05-05T15:21:14.415Z,27.70
2023-05-05T15:23:43.826Z,27.60
2023-05-05T15:26:12.016Z,27.30
2023-05-05T15:28:40.173Z,27.60
2023-05-05T15:31:09.753Z,27.70
2023-05-05T15:33:37.949Z,28.20
2023-05-05T15:36:06.597Z,28.30
2023-05-05T15:38:34.797Z,27.40
2023-05-05T15:41:02.963Z,27.40
2023-05-05T15:43:31.137Z,27.20
2023-05-05T15:45:59.343Z,27.50
2023-05-05T15:48:29.314Z,27.20
2023-05-05T15:50:57.495Z,27.90
2023-05-05T15:53:26.688Z,28.10
2023-05-05T15:55:54.823Z,28.00
2023-05-05T15:58:23.031Z,28.20
2023-05-05T16:00:51.233Z,28.10
2023-05-05T16:03:19.747Z,28.20
2023-05-05T16:05:49.434Z,28.30
2023-05-05T16:08:17.786Z,28.50
2023-05-05T16:10:48.377Z,28.50
2023-05-05T16:13:16.697Z,28.20
2023-05-05T16:15:44.911Z,28.40
2023-05-05T16:18:13.086Z,27.90
2023-05-05T16:20:41.277Z,27.70
2023-05-05T16:23:10.844Z,28.00
2023-05-05T16:25:39.093Z,27.50
2023-05-05T16:28:07.693Z,27.30
2023-05-05T16:30:36.097Z,27.40
2023-05-05T16:33:04.306Z,27.10
2023-05-05T16:35:32.464Z,27.10
2023-05-05T16:38:00.668Z,27.40
2023-05-05T16:40:30.392Z,27.30
2023-05-05T16:42:58.597Z,27.80
2023-05-05T16:45:28.933Z,27.40
2023-05-05T16:47:57.124Z,27.60
2023-05-05T16:50:25.328Z,27.20
2023-05-05T16:52:53.518Z,27.10
2023-05-05T16:55:21.865Z,27.00
2023-05-05T16:57:54.052Z,27.00
2023-05-05T17:00:22.291Z,27.40
2023-05-05T17:02:50.470Z,27.40
2023-05-05T17:05:18.851Z,27.10
2023-05-05T17:07:48.197Z,27.20
2023-05-05T17:10:16.513Z,27.50
2023-05-05T17:12:46.922Z,27.80
2023-05-05T17:15:16.619Z,28.10
2023-05-05T17:17:44.782Z,28.50
2023-05-05T17:20:13.427Z,28.40
2023-05-05T17:22:41.712Z,28.80
2023-05-05T17:25:11.252Z,28.50
2023-05-05T17:27:39.672Z,28.80
2023-05-05T17:30:09.118Z,29.70
2023-05-05T17:32:38.846Z,29.80
2023-05-05T17:35:08.206Z,30.00
2023-05-05T17:37:36.613Z,30.00
2023-05-05T17:40:05.456Z,29.20
2023-05-05T17:42:33.891Z,30.20
2023-05-05T17:45:02.010Z,30.30
2023-05-05T17:47:30.460Z,31.40
2023-05-05T17:50:00.000Z,32.00
2023-05-05T17:52:28.168Z,31.10
2023-05-05T17:54:56.494Z,30.40
2023-05-05T17:57:24.690Z,30.50
2023-05-05T17:59:53.602Z,31.20
2023-05-05T18:02:22.057Z,31.00
2023-05-05T18:04:50.396Z,31.30
2023-05-05T18:07:20.396Z,32.20
2023-05-05T18:09:48.582Z,32.40
2023-05-05T18:12:17.346Z,32.50
2023-05-05T18:14:47.827Z,32.90
2023-05-05T18:17:15.958Z,33.90
2023-05-05T18:19:49.274Z,34.30
2023-05-05T18:22:19.170Z,33.20
2023-05-05T18:24:47.719Z,33.70
2023-05-05T18:27:15.931Z,34.60
2023-05-05T18:29:44.144Z,34.40
2023-05-05T18:32:12.283Z,34.00
2023-05-05T18:34:40.452Z,33.80
2023-05-05T18:37:08.619Z,33.80
2023-05-05T18:39:38.258Z,35.30
2023-05-05T18:42:08.902Z,34.30
2023-05-05T18:44:37.117Z,33.70
2023-05-05T18:47:05.484Z,32.80
2023-05-05T18:49:33.659Z,32.20
2023-05-05T18:52:01.826Z,30.10
2023-05-05T18:54:29.975Z,31.00
2023-05-05T18:56:59.881Z,31.70
2023-05-05T18:59:30.864Z,33.10
2023-05-05T19:01:59.350Z,32.80
2023-05-05T19:04:31.813Z,32.60
2023-05-05T19:07:00.352Z,33.60
2023-05-05T19:09:28.795Z,32.50
2023-05-05T19:11:56.987Z,32.20
2023-05-05T19:14:27.147Z,30.90
2023-05-05T19:16:56.246Z,31.00
2023-05-05T19:19:24.677Z,30.80
2023-05-05T19:21:52.895Z,30.70
2023-05-05T19:24:21.077Z,31.10
2023-05-05T19:26:49.337Z,30.10
2023-05-05T19:29:17.641Z,30.00
2023-05-05T19:31:47.266Z,30.10
2023-05-05T19:34:15.521Z,30.10
2023-05-05T19:36:43.714Z,30.10
2023-05-05T19:39:13.080Z,30.00
2023-05-05T19:41:42.630Z,29.80
2023-05-05T19:44:10.784Z,29.90
2023-05-05T19:46:39.235Z,29.90
2023-05-05T19:49:08.998Z,29.90
2023-05-05T19:51:37.278Z,29.90
2023-05-05T19:54:08.957Z,30.00
2023-05-05T19:56:37.157Z,30.00
2023-05-05T19:59:06.468Z,30.00
2023-05-05T20:01:36.014Z,30.20
2023-05-05T20:04:07.560Z,30.10
2023-05-05T20:06:37.404Z,30.40
2023-05-05T20:09:06.127Z,31.10
2023-05-05T20:11:35.502Z,30.90
2023-05-05T20:14:03.807Z,30.50
2023-05-05T20:16:32.333Z,30.90
2023-05-05T20:19:00.672Z,30.90
2023-05-05T20:21:32.408Z,30.70
2023-05-05T20:24:04.560Z,31.10
2023-05-05T20:26:33.153Z,30.90
2023-05-05T20:29:01.326Z,31.10
2023-05-05T20:31:29.549Z,31.20
2023-05-05T20:33:57.917Z,31.40
2023-05-05T20:36:26.575Z,31.50
2023-05-05T20:38:54.895Z,31.70
2023-05-05T20:41:24.428Z,31.60
2023-05-05T20:43:52.605Z,31.90
2023-05-05T20:46:21.068Z,32.10
2023-05-05T20:48:49.257Z,32.10
2023-05-05T20:51:17.375Z,32.20
2023-05-05T20:53:45.600Z,32.40
2023-05-05T20:56:13.740Z,32.70
2023-05-05T20:58:44.407Z,32.50
2023-05-05T21:01:13.035Z,32.70
2023-05-05T21:03:41.246Z,32.80
2023-05-05T21:06:09.477Z,32.80
2023-05-05T21:08:39.427Z,32.90
2023-05-05T21:11:10.303Z,33.30
2023-05-05T21:13:38.521Z,33.70
2023-05-05T21:16:08.504Z,34.00
2023-05-05T21:18:36.709Z,34.60
2023-05-05T21:21:07.492Z,34.60
2023-05-05T21:23:35.730Z,35.10
2023-05-05T21:26:04.075Z,35.70
2023-05-05T21:28:32.218Z,35.70
2023-05-05T21:31:20.606Z,35.70
2023-05-05T21:33:50.089Z,35.60
2023-05-05T21:36:19.246Z,35.80
2023-05-05T21:38:47.990Z,35.90
2023-05-05T21:41:16.643Z,35.70
2023-05-05T21:43:47.152Z,36.30
2023-05-05T21:46:17.048Z,36.50
2023-05-05T21:48:48.234Z,36.60
2023-05-05T21:51:17.984Z,36.70
2023-05-05T21:53:46.392Z,37.10
2023-05-05T21:56:14.590Z,37.20
2023-05-05T21:58:44.715Z,37.30
2023-05-05T22:01:13.368Z,37.50
2023-05-05T22:03:43.601Z,37.40
2023-05-05T22:06:12.358Z,37.20
2023-05-05T22:08:42.135Z,37.10
2023-05-05T22:11:10.427Z,36.90
2023-05-05T22:13:38.945Z,37.30
2023-05-05T22:16:07.802Z,37.10
2023-05-05T22:18:36.043Z,37.20
2023-05-05T22:21:04.640Z,36.90
2023-05-05T22:23:32.856Z,37.90
2023-05-05T22:26:02.423Z,37.20
2023-05-05T22:28:30.871Z,37.40
2023-05-05T22:30:59.110Z,37.00
2023-05-05T22:33:28.348Z,37.30
2023-05-05T22:35:56.779Z,37.00
2023-05-05T22:38:27.053Z,37.50
2023-05-05T22:40:55.320Z,37.70
2023-05-05T22:43:24.887Z,38.40
2023-05-05T22:45:53.248Z,37.60
2023-05-05T22:48:21.638Z,37.70
2023-05-05T22:50:49.880Z,37.40
2023-05-05T22:53:18.077Z,37.50
2023-05-05T22:55:49.410Z,37.40
2023-05-05T22:58:17.647Z,37.40
2023-05-05T23:00:47.307Z,37.70
2023-05-05T23:03:15.700Z,37.50
2023-05-05T23:05:46.718Z,37.50
2023-05-05T23:08:14.936Z,37.70
2023-05-05T23:10:43.236Z,37.80
2023-05-05T23:13:11.476Z,37.70
2023-05-05T23:15:40.903Z,37.70
2023-05-05T23:18:10.538Z,37.60
2023-05-05T23:20:38.971Z,37.40
2023-05-05T23:23:07.165Z,37.70
2023-05-05T23:25:35.605Z,38.80
2023-05-05T23:28:03.918Z,38.30
2023-05-05T23:30:32.544Z,38.20
2023-05-05T23:33:01.124Z,38.10
2023-05-05T23:35:31.139Z,38.20
2023-05-05T23:37:59.492Z,38.10
2023-05-05T23:40:27.909Z,38.20
2023-05-05T23:42:56.160Z,38.80
2023-05-05T23:45:24.459Z,38.90
2023-05-05T23:47:52.769Z,39.10
2023-05-05T23:50:21.119Z,38.70
2023-05-05T23:52:50.778Z,38.00
2023-05-05T23:55:18.968Z,37.40
2023-05-05T23:57:47.231Z,38.30
